createdAt,value
2018-04-02T00:00:33.741Z,6.80
2018-04-02T00:03:01.587Z,6.80
2018-04-02T00:05:29.344Z,6.80
2018-04-02T00:07:57.019Z,6.70
2018-04-02T00:10:24.715Z,6.70
2018-04-02T00:12:53.179Z,6.70
2018-04-02T00:15:20.931Z,6.70
2018-04-02T00:17:48.628Z,6.60
2018-04-02T00:20:17.097Z,6.60
2018-04-02T00:22:45.647Z,6.60
2018-04-02T00:25:13.271Z,6.60
2018-04-02T00:27:40.999Z,6.60
2018-04-02T00:30:08.760Z,6.60
2018-04-02T00:32:36.524Z,6.50
2018-04-02T00:35:04.474Z,6.50
2018-04-02T00:37:32.136Z,6.50
2018-04-02T00:39:59.822Z,6.50
2018-04-02T00:42:27.539Z,6.40
2018-04-02T00:44:55.169Z,6.50
2018-04-02T00:47:22.875Z,6.40
2018-04-02T00:49:50.723Z,6.40
2018-04-02T00:52:18.458Z,6.30
2018-04-02T00:54:48.155Z,6.20
2018-04-02T00:57:16.588Z,6.20
2018-04-02T00:59:45.160Z,6.20
2018-04-02T01:02:12.952Z,6.10
2018-04-02T01:04:40.695Z,6.10
2018-04-02T01:07:09.077Z,6.00
2018-04-02T01:09:36.776Z,6.00
2018-04-02T01:12:04.451Z,6.00
2018-04-02T01:14:33.115Z,5.90
2018-04-02T01:17:00.797Z,5.90
2018-04-02T01:19:28.464Z,5.80
2018-04-02T01:21:56.819Z,5.80
2018-04-02T01:24:25.406Z,5.80
2018-04-02T01:26:53.147Z,5.80
2018-04-02T01:29:20.950Z,5.70
2018-04-02T01:31:49.320Z,5.70
2018-04-02T01:34:16.999Z,5.70
2018-04-02T01:36:44.723Z,5.60
2018-04-02T01:39:12.295Z,5.60
2018-04-02T01:41:40.799Z,5.60
2018-04-02T01:44:10.678Z,5.60
2018-04-02T01:46:38.365Z,5.60
2018-04-02T01:49:06.027Z,5.50
2018-04-02T01:51:34.437Z,5.50
2018-04-02T01:54:02.252Z,5.50
2018-04-02T01:56:29.971Z,5.50
2018-04-02T01:58:57.555Z,5.50
2018-04-02T02:01:25.927Z,5.40
2018-04-02T02:03:53.591Z,5.40
2018-04-02T02:06:21.349Z,5.30
2018-04-02T02:08:49.136Z,5.30
2018-04-02T02:11:16.869Z,5.30
2018-04-02T02:13:44.462Z,5.30
2018-04-02T02:16:12.156Z,5.20
2018-04-02T02:18:40.751Z,5.20
2018-04-02T02:21:08.340Z,5.20
2018-04-02T02:23:36.041Z,5.10
2018-04-02T02:26:03.650Z,5.00
2018-04-02T02:28:31.338Z,5.00
2018-04-02T02:30:59.016Z,5.10
2018-04-02T02:33:27.383Z,5.00
2018-04-02T02:35:55.856Z,5.10
2018-04-02T02:38:23.527Z,5.00
2018-04-02T02:40:54.373Z,4.90
2018-04-02T02:43:21.984Z,4.90
2018-04-02T02:45:49.670Z,4.90
2018-04-02T02:48:17.472Z,4.90
2018-04-02T02:50:45.054Z,4.90
2018-04-02T02:53:12.700Z,4.90
2018-04-02T02:55:41.253Z,4.80
2018-04-02T02:58:08.894Z,4.80
2018-04-02T03:00:36.654Z,4.90
2018-04-02T03:03:04.726Z,4.80
2018-04-02T03:05:32.371Z,4.80
2018-04-02T03:07:59.989Z,4.80
2018-04-02T03:10:27.597Z,4.80
2018-04-02T03:12:56.281Z,4.70
2018-04-02T03:15:23.882Z,4.60
2018-04-02T03:17:51.543Z,4.60
2018-04-02T03:20:19.233Z,4.70
2018-04-02T03:22:46.838Z,4.60
2018-04-02T03:25:14.608Z,4.70
2018-04-02T03:27:42.326Z,4.60
2018-04-02T03:30:09.961Z,4.60
2018-04-02T03:32:37.669Z,4.70
2018-04-02T03:35:05.720Z,4.80
2018-04-02T03:37:34.451Z,4.90
2018-04-02T03:40:02.104Z,4.90
2018-04-02T03:42:30.053Z,4.90
2018-04-02T03:44:57.820Z,5.00
2018-04-02T03:47:26.610Z,4.80
2018-04-02T03:49:55.444Z,4.80
2018-04-02T03:52:24.153Z,4.90
2018-04-02T03:54:51.835Z,4.80
2018-04-02T03:57:19.526Z,4.90
2018-04-02T03:59:47.140Z,4.80
2018-04-02T04:02:15.483Z,4.80
2018-04-02T04:04:43.107Z,4.80
2018-04-02T04:07:10.938Z,4.80
2018-04-02T04:09:39.343Z,4.80
2018-04-02T04:12:07.727Z,4.80
2018-04-02T04:14:35.321Z,4.90
2018-04-02T04:17:03.130Z,4.80
2018-04-02T04:19:31.777Z,4.80
2018-04-02T04:21:59.468Z,4.90
2018-04-02T04:24:27.850Z,4.80
2018-04-02T04:26:55.750Z,4.70
2018-04-02T04:29:23.927Z,4.80
2018-04-02T04:31:51.593Z,4.80
2018-04-02T04:34:19.266Z,4.80
2018-04-02T04:36:46.854Z,4.70
2018-04-02T04:39:14.585Z,4.60
2018-04-02T04:41:42.291Z,4.50
2018-04-02T04:44:09.908Z,4.60
2018-04-02T04:46:37.693Z,4.60
2018-04-02T04:49:05.398Z,4.60
2018-04-02T04:51:33.085Z,4.70
2018-04-02T04:54:00.729Z,4.70
2018-04-02T04:56:28.945Z,4.70
2018-04-02T04:58:56.600Z,4.70
2018-04-02T05:01:24.252Z,4.70
2018-04-02T05:03:51.951Z,4.80
2018-04-02T05:06:19.625Z,4.90
2018-04-02T05:08:47.327Z,4.90
2018-04-02T05:11:15.090Z,5.00
2018-04-02T05:13:42.683Z,5.00
2018-04-02T05:16:10.330Z,4.90
2018-04-02T05:18:39.022Z,4.90
2018-04-02T05:21:06.738Z,5.00
2018-04-02T05:23:35.129Z,5.10
2018-04-02T05:26:02.820Z,5.10
2018-04-02T05:28:30.459Z,5.20
2018-04-02T05:30:58.190Z,5.20
2018-04-02T05:33:25.822Z,5.20
2018-04-02T05:35:53.487Z,5.30
2018-04-02T05:38:24.736Z,5.30
2018-04-02T05:40:52.475Z,5.30
2018-04-02T05:43:20.141Z,5.40
2018-04-02T05:45:47.767Z,5.40
2018-04-02T05:48:16.140Z,5.40
2018-04-02T05:50:43.846Z,5.50
2018-04-02T05:53:11.475Z,5.60
2018-04-02T05:55:39.184Z,5.70
2018-04-02T05:58:06.851Z,5.70
2018-04-02T06:00:35.299Z,5.70
2018-04-02T06:03:02.985Z,5.60
2018-04-02T06:05:30.653Z,5.80
2018-04-02T06:07:58.870Z,5.90
2018-04-02T06:10:27.316Z,6.10
2018-04-02T06:12:55.720Z,6.10
2018-04-02T06:15:23.437Z,6.20
2018-04-02T06:17:51.140Z,6.30
2018-04-02T06:20:18.777Z,6.40
2018-04-02T06:22:46.426Z,6.50
2018-04-02T06:25:14.477Z,6.40
2018-04-02T06:27:42.120Z,6.50
2018-04-02T06:30:09.766Z,6.50
2018-04-02T06:32:37.491Z,6.50
2018-04-02T06:35:05.207Z,6.60
2018-04-02T06:37:33.490Z,6.70
2018-04-02T06:40:01.177Z,6.80
2018-04-02T06:42:28.892Z,6.80
2018-04-02T06:44:56.691Z,6.90
2018-04-02T06:47:24.366Z,6.90
2018-04-02T06:49:52.025Z,7.00
2018-04-02T06:52:19.772Z,7.20
2018-04-02T06:54:47.513Z,7.20
2018-04-02T06:57:15.183Z,7.20
2018-04-02T06:59:43.114Z,7.40
2018-04-02T07:02:11.176Z,7.50
2018-04-02T07:04:41.720Z,7.80
2018-04-02T07:07:09.352Z,7.80
2018-04-02T07:09:37.981Z,7.90
2018-04-02T07:12:06.113Z,7.80
2018-04-02T07:14:33.783Z,7.80
2018-04-02T07:17:02.312Z,7.80
2018-04-02T07:19:30.729Z,7.70
2018-04-02T07:21:58.411Z,7.70
2018-04-02T07:24:27.770Z,7.90
2018-04-02T07:26:56.255Z,8.10
2018-04-02T07:29:24.153Z,8.10
2018-04-02T07:31:51.955Z,8.20
2018-04-02T07:34:19.610Z,8.20
2018-04-02T07:36:47.288Z,8.40
2018-04-02T07:39:15.016Z,8.40
2018-04-02T07:41:43.403Z,8.80
2018-04-02T07:44:11.118Z,8.80
2018-04-02T07:46:38.925Z,8.90
2018-04-02T07:49:07.821Z,9.00
2018-04-02T07:51:35.478Z,9.00
2018-04-02T07:54:03.426Z,9.10
2018-04-02T07:56:32.400Z,8.90
2018-04-02T07:59:00.851Z,9.30
2018-04-02T08:01:31.742Z,9.20
2018-04-02T08:04:01.107Z,9.60
2018-04-02T08:06:31.844Z,9.50
2018-04-02T08:09:00.306Z,9.70
2018-04-02T08:11:33.860Z,9.70
2018-04-02T08:14:02.462Z,10.00
2018-04-02T08:16:31.317Z,9.90
2018-04-02T08:18:58.999Z,10.10
2018-04-02T08:21:29.840Z,10.30
2018-04-02T08:23:58.307Z,10.40
2018-04-02T08:26:27.078Z,10.50
2018-04-02T08:28:55.056Z,10.50
2018-04-02T08:31:23.468Z,10.60
2018-04-02T08:33:51.301Z,10.60
2018-04-02T08:36:19.727Z,10.60
2018-04-02T08:38:47.694Z,10.60
2018-04-02T08:41:15.705Z,10.50
2018-04-02T08:43:43.428Z,10.60
2018-04-02T08:46:12.625Z,10.50
2018-04-02T08:48:40.429Z,10.70
2018-04-02T08:51:08.322Z,10.60
2018-04-02T08:53:36.169Z,10.60
2018-04-02T08:56:03.866Z,10.80
2018-04-02T08:58:31.550Z,10.90
2018-04-02T09:00:59.247Z,10.70
2018-04-02T09:03:27.012Z,10.90
2018-04-02T09:05:54.799Z,11.10
2018-04-02T09:08:22.497Z,11.20
2018-04-02T09:10:53.264Z,11.30
2018-04-02T09:13:21.197Z,11.60
2018-04-02T09:15:48.864Z,11.60
2018-04-02T09:18:16.982Z,11.70
2018-04-02T09:20:44.813Z,12.00
2018-04-02T09:23:12.504Z,12.10
2018-04-02T09:25:40.345Z,12.40
2018-04-02T09:28:08.277Z,12.60
2018-04-02T09:30:36.152Z,13.50
2018-04-02T09:35:46.045Z,14.90
2018-04-02T09:38:15.486Z,14.90
2018-04-02T09:40:44.272Z,15.60
2018-04-02T09:43:12.705Z,15.80
2018-04-02T09:45:40.400Z,15.80
2018-04-02T09:48:08.525Z,15.70
2018-04-02T09:50:37.064Z,15.50
2018-04-02T09:53:05.917Z,15.30
2018-04-02T09:55:34.030Z,15.20
2018-04-02T09:58:02.520Z,14.10
2018-04-02T10:00:34.086Z,14.10
2018-04-02T10:03:02.781Z,13.70
2018-04-02T10:05:31.316Z,13.70
2018-04-02T10:07:59.250Z,13.30
2018-04-02T10:10:27.142Z,13.20
2018-04-02T10:12:55.318Z,13.10
2018-04-02T10:15:23.309Z,13.10
2018-04-02T10:17:51.289Z,13.00
2018-04-02T10:20:20.454Z,12.90
2018-04-02T10:22:48.167Z,12.90
2018-04-02T10:25:16.212Z,12.90
2018-04-02T10:27:45.111Z,12.90
2018-04-02T10:30:12.850Z,12.80
2018-04-02T10:32:40.899Z,12.90
2018-04-02T10:35:08.707Z,13.10
2018-04-02T10:37:36.646Z,13.10
2018-04-02T10:40:05.244Z,12.70
2018-04-02T10:42:33.911Z,12.50
2018-04-02T10:45:01.817Z,12.40
2018-04-02T10:47:29.740Z,12.70
2018-04-02T10:49:57.766Z,12.80
2018-04-02T10:52:25.678Z,12.80
2018-04-02T10:54:53.969Z,13.20
2018-04-02T10:57:21.779Z,13.30
2018-04-02T10:59:49.737Z,13.30
2018-04-02T11:02:17.618Z,13.30
2018-04-02T11:04:46.153Z,13.80
2018-04-02T11:07:14.826Z,14.20
2018-04-02T11:09:42.678Z,14.20
2018-04-02T11:12:10.555Z,14.60
2018-04-02T11:14:38.592Z,14.90
2018-04-02T11:17:07.300Z,14.60
2018-04-02T11:19:35.111Z,14.70
2018-04-02T11:22:03.051Z,14.40
2018-04-02T11:24:31.351Z,14.40
2018-04-02T11:26:59.087Z,14.50
2018-04-02T11:29:27.017Z,14.40
2018-04-02T11:31:54.780Z,14.40
2018-04-02T11:34:22.425Z,14.50
2018-04-02T11:36:50.193Z,14.50
2018-04-02T11:39:18.830Z,14.50
2018-04-02T11:41:46.501Z,14.50
2018-04-02T11:44:14.239Z,14.60
2018-04-02T11:46:42.193Z,14.60
2018-04-02T11:49:09.854Z,14.50
2018-04-02T11:51:37.725Z,14.50
2018-04-02T11:54:05.446Z,14.70
2018-04-02T11:56:33.195Z,15.00
2018-04-02T11:59:00.974Z,15.40
2018-04-02T12:01:33.405Z,16.10
2018-04-02T12:04:01.475Z,16.10
2018-04-02T12:06:32.175Z,16.40
2018-04-02T12:08:59.823Z,16.60
2018-04-02T12:11:28.796Z,16.60
2018-04-02T12:13:57.213Z,16.60
2018-04-02T12:16:24.896Z,16.60
2018-04-02T12:18:52.614Z,16.40
2018-04-02T12:21:20.647Z,16.50
2018-04-02T12:23:48.677Z,16.50
2018-04-02T12:26:16.663Z,16.50
2018-04-02T12:28:44.356Z,16.40
2018-04-02T12:31:12.669Z,16.60
2018-04-02T12:33:40.423Z,16.40
2018-04-02T12:36:08.257Z,16.50
2018-04-02T12:38:36.070Z,16.50
2018-04-02T12:41:04.810Z,16.30
2018-04-02T12:43:32.526Z,16.30
2018-04-02T12:46:00.230Z,16.40
2018-04-02T12:48:28.065Z,16.40
2018-04-02T12:50:55.751Z,16.70
2018-04-02T12:53:23.684Z,16.70
2018-04-02T12:55:51.958Z,16.90
2018-04-02T12:58:19.736Z,16.90
2018-04-02T13:00:47.696Z,16.60
2018-04-02T13:03:15.440Z,16.30
2018-04-02T13:05:43.901Z,16.00
2018-04-02T13:08:11.546Z,15.90
2018-04-02T13:10:39.360Z,16.20
2018-04-02T13:13:07.891Z,16.00
2018-04-02T13:15:35.583Z,16.00
2018-04-02T13:18:03.311Z,16.00
2018-04-02T13:20:30.969Z,15.90
2018-04-02T13:22:58.648Z,16.00
2018-04-02T13:25:27.408Z,15.90
2018-04-02T13:27:56.065Z,15.90
2018-04-02T13:30:23.793Z,15.60
2018-04-02T13:32:51.569Z,15.70
2018-04-02T13:35:19.299Z,15.70
2018-04-02T13:37:47.018Z,15.80
2018-04-02T13:40:15.012Z,16.10
2018-04-02T13:42:42.962Z,16.20
2018-04-02T13:45:11.239Z,16.10
2018-04-02T13:47:40.571Z,16.20
2018-04-02T13:50:08.833Z,16.10
2018-04-02T13:52:36.550Z,15.70
2018-04-02T13:55:04.598Z,15.30
2018-04-02T13:57:33.143Z,15.00
2018-04-02T14:00:00.886Z,15.00
2018-04-02T14:02:31.109Z,14.80
2018-04-02T14:04:59.219Z,14.60
2018-04-02T14:07:30.982Z,14.40
2018-04-02T14:09:58.691Z,14.20
2018-04-02T14:12:27.030Z,14.10
2018-04-02T14:14:55.643Z,13.90
2018-04-02T14:17:23.542Z,14.00
2018-04-02T14:19:53.066Z,13.90
2018-04-02T14:22:20.986Z,13.90
2018-04-02T14:24:48.770Z,13.80
2018-04-02T14:27:16.996Z,13.80
2018-04-02T14:29:44.828Z,13.90
2018-04-02T14:32:12.808Z,14.00
2018-04-02T14:34:41.211Z,13.90
2018-04-02T14:37:09.677Z,14.00
2018-04-02T14:39:38.076Z,14.00
2018-04-02T14:42:06.502Z,14.10
2018-04-02T14:44:35.535Z,14.10
2018-04-02T14:47:03.202Z,14.20
2018-04-02T14:52:09.355Z,14.20
2018-04-02T14:54:37.858Z,14.20
2018-04-02T14:57:05.569Z,14.30
2018-04-02T14:59:33.266Z,14.40
2018-04-02T15:02:00.979Z,14.70
2018-04-02T15:04:28.654Z,14.80
2018-04-02T15:06:57.879Z,14.90
2018-04-02T15:09:25.518Z,14.90
2018-04-02T15:11:53.409Z,14.80
2018-04-02T15:14:21.373Z,14.90
2018-04-02T15:16:49.517Z,15.00
2018-04-02T15:19:17.204Z,15.10
2018-04-02T15:21:45.666Z,15.00
2018-04-02T15:24:13.386Z,14.90
2018-04-02T15:26:41.225Z,15.00
2018-04-02T15:29:09.211Z,14.90
2018-04-02T15:31:37.024Z,14.80
2018-04-02T15:34:04.669Z,14.90
2018-04-02T15:36:32.431Z,14.90
2018-04-02T15:39:00.440Z,14.90
2018-04-02T15:41:28.362Z,15.00
2018-04-02T15:43:56.373Z,15.10
2018-04-02T15:46:24.111Z,15.20
2018-04-02T15:48:52.639Z,15.40
2018-04-02T15:51:20.527Z,15.40
2018-04-02T15:53:49.318Z,15.40
2018-04-02T15:56:17.004Z,15.40
2018-04-02T15:58:44.987Z,15.50
2018-04-02T16:01:13.228Z,15.50
2018-04-02T16:03:41.123Z,15.50
2018-04-02T16:06:10.655Z,15.40
2018-04-02T16:08:38.302Z,15.40
2018-04-02T16:11:06.045Z,15.30
2018-04-02T16:13:33.735Z,15.10
2018-04-02T16:16:02.566Z,15.10
2018-04-02T16:18:30.948Z,15.00
2018-04-02T16:20:58.772Z,15.00
2018-04-02T16:23:26.473Z,15.00
2018-04-02T16:25:55.437Z,15.00
2018-04-02T16:28:23.440Z,14.90
2018-04-02T16:30:52.225Z,14.80
2018-04-02T16:33:20.208Z,14.80
2018-04-02T16:35:48.236Z,14.80
2018-04-02T16:38:16.657Z,14.90
2018-04-02T16:40:44.427Z,14.80
2018-04-02T16:43:13.218Z,14.80
2018-04-02T16:45:40.991Z,14.80
2018-04-02T16:48:08.672Z,14.80
2018-04-02T16:50:36.358Z,14.80
2018-04-02T16:53:04.120Z,14.80
2018-04-02T16:55:31.982Z,14.70
2018-04-02T16:57:59.782Z,14.70
2018-04-02T17:00:31.755Z,14.60
2018-04-02T17:03:00.324Z,14.50
2018-04-02T17:05:29.711Z,14.40
2018-04-02T17:07:57.372Z,14.40
2018-04-02T17:10:25.378Z,14.40
2018-04-02T17:12:53.475Z,14.30
2018-04-02T17:15:21.168Z,14.30
2018-04-02T17:17:49.688Z,14.30
2018-04-02T17:20:17.365Z,14.30
2018-04-02T17:22:45.370Z,14.30
2018-04-02T17:25:13.139Z,14.20
2018-04-02T17:27:40.833Z,14.20
2018-04-02T17:30:09.385Z,14.10
2018-04-02T17:32:37.351Z,14.10
2018-04-02T17:35:05.258Z,14.10
2018-04-02T17:37:33.446Z,14.10
2018-04-02T17:40:01.142Z,14.10
2018-04-02T17:42:28.886Z,14.10
2018-04-02T17:44:56.772Z,14.10
2018-04-02T17:47:24.768Z,14.10
2018-04-02T17:49:53.307Z,14.00
2018-04-02T17:52:20.976Z,14.00
2018-04-02T17:54:48.824Z,14.00
2018-04-02T17:57:16.729Z,14.00
2018-04-02T17:59:44.638Z,14.00
2018-04-02T18:02:13.522Z,14.00
2018-04-02T18:04:41.183Z,14.00
2018-04-02T18:07:09.861Z,13.90
2018-04-02T18:09:37.867Z,13.90
2018-04-02T18:12:06.401Z,13.90
2018-04-02T18:14:34.847Z,13.90
2018-04-02T18:17:04.862Z,13.80
2018-04-02T18:19:33.987Z,13.80
2018-04-02T18:22:01.810Z,13.80
2018-04-02T18:24:30.877Z,13.70
2018-04-02T18:27:00.218Z,13.70
2018-04-02T18:29:28.106Z,13.80
2018-04-02T18:31:55.869Z,13.80
2018-04-02T18:34:24.056Z,13.70
2018-04-02T18:36:51.782Z,13.70
2018-04-02T18:39:19.615Z,13.70
2018-04-02T18:41:47.975Z,13.70
2018-04-02T18:44:16.819Z,13.70
2018-04-02T18:46:44.634Z,13.70
2018-04-02T18:49:12.604Z,13.60
2018-04-02T18:51:41.110Z,13.60
2018-04-02T18:54:08.895Z,13.60
2018-04-02T18:56:36.543Z,13.50
2018-04-02T18:59:04.322Z,13.60
2018-04-02T19:01:32.398Z,13.60
2018-04-02T19:04:00.186Z,13.60
2018-04-02T19:06:28.868Z,13.60
2018-04-02T19:08:57.020Z,13.60
2018-04-02T19:11:24.716Z,13.60
2018-04-02T19:13:53.829Z,13.60
2018-04-02T19:16:21.974Z,13.50
2018-04-02T19:18:50.289Z,13.50
2018-04-02T19:21:18.384Z,13.50
2018-04-02T19:23:46.086Z,13.50
2018-04-02T19:26:13.894Z,13.40
2018-04-02T19:28:41.624Z,13.50
2018-04-02T19:31:13.118Z,13.50
2018-04-02T19:33:41.803Z,13.50
2018-04-02T19:36:10.582Z,13.40
2018-04-02T19:38:38.417Z,13.40
2018-04-02T19:41:06.923Z,13.40
2018-04-02T19:43:34.894Z,13.40
2018-04-02T19:46:02.945Z,13.50
2018-04-02T19:48:31.531Z,13.50
2018-04-02T19:50:59.398Z,13.40
2018-04-02T19:53:36.028Z,13.40
2018-04-02T19:56:03.712Z,13.40
2018-04-02T19:58:32.391Z,13.40
2018-04-02T20:01:00.510Z,13.50
2018-04-02T20:03:29.359Z,13.40
2018-04-02T20:05:57.293Z,13.20
2018-04-02T20:08:25.305Z,13.20
2018-04-02T20:10:53.488Z,13.20
2018-04-02T20:13:21.322Z,13.30
2018-04-02T20:15:49.058Z,13.30
2018-04-02T20:18:20.840Z,13.30
2018-04-02T20:20:48.804Z,13.40
2018-04-02T20:23:16.816Z,13.40
2018-04-02T20:25:45.463Z,13.30
2018-04-02T20:28:13.501Z,13.30
2018-04-02T20:30:41.334Z,13.30
2018-04-02T20:33:09.092Z,13.30
2018-04-02T20:35:36.802Z,13.30
2018-04-02T20:38:05.407Z,13.30
2018-04-02T20:40:33.182Z,13.20
2018-04-02T20:43:00.875Z,13.20
2018-04-02T20:45:28.760Z,13.30
2018-04-02T20:47:56.680Z,13.30
2018-04-02T20:50:24.952Z,13.30
2018-04-02T20:52:53.696Z,13.30
2018-04-02T20:55:22.955Z,13.20
2018-04-02T20:57:51.990Z,13.20
2018-04-02T21:00:19.811Z,13.10
2018-04-02T21:02:47.780Z,13.20
2018-04-02T21:05:16.184Z,13.20
2018-04-02T21:07:44.540Z,13.20
2018-04-02T21:10:13.296Z,13.20
2018-04-02T21:12:41.377Z,13.20
2018-04-02T21:15:09.260Z,13.10
2018-04-02T21:17:37.426Z,13.10
2018-04-02T21:20:06.059Z,13.10
2018-04-02T21:22:33.710Z,13.10
2018-04-02T21:25:01.685Z,13.10
2018-04-02T21:27:29.506Z,13.10
2018-04-02T21:29:58.041Z,13.00
2018-04-02T21:32:25.821Z,13.00
2018-04-02T21:34:53.633Z,12.90
2018-04-02T21:37:21.349Z,12.90
2018-04-02T21:39:49.778Z,13.00
2018-04-02T21:42:18.506Z,13.00
2018-04-02T21:44:47.072Z,12.90
2018-04-02T21:47:15.077Z,12.90
2018-04-02T21:49:43.028Z,12.90
2018-04-02T21:52:12.766Z,12.80
2018-04-02T21:54:40.418Z,12.80
2018-04-02T21:57:11.672Z,12.90
2018-04-02T21:59:39.438Z,12.90
2018-04-02T22:02:08.232Z,12.80
2018-04-02T22:04:36.758Z,12.80
2018-04-02T22:07:05.617Z,12.80
2018-04-02T22:09:34.445Z,12.80
2018-04-02T22:12:03.144Z,12.80
2018-04-02T22:14:31.013Z,12.80
2018-04-02T22:16:59.828Z,12.70
2018-04-02T22:19:28.726Z,12.70
2018-04-02T22:21:56.610Z,12.60
2018-04-02T22:24:24.232Z,12.60
2018-04-02T22:26:51.899Z,12.60
2018-04-02T22:29:19.625Z,12.70
2018-04-02T22:31:47.263Z,12.70
2018-04-02T22:34:15.305Z,12.60
2018-04-02T22:36:43.069Z,12.70
2018-04-02T22:39:11.549Z,12.60
2018-04-02T22:41:40.125Z,12.60
2018-04-02T22:44:08.722Z,12.60
2018-04-02T22:46:36.403Z,12.50
2018-04-02T22:49:04.071Z,12.50
2018-04-02T22:51:31.889Z,12.50
2018-04-02T22:53:59.684Z,12.60
2018-04-02T22:56:27.454Z,12.40
2018-04-02T22:58:55.195Z,12.50
2018-04-02T23:01:23.014Z,12.50
2018-04-02T23:03:50.886Z,12.60
2018-04-02T23:06:19.482Z,12.60
2018-04-02T23:08:47.120Z,12.70
2018-04-02T23:11:14.953Z,12.70
2018-04-02T23:13:43.647Z,12.70
2018-04-02T23:16:11.291Z,12.80
2018-04-02T23:18:39.030Z,12.90
2018-04-02T23:21:06.717Z,12.90
2018-04-02T23:23:34.567Z,13.00
2018-04-02T23:26:02.274Z,13.00
2018-04-02T23:28:29.975Z,13.10
2018-04-02T23:30:57.638Z,13.10
2018-04-02T23:33:25.281Z,13.10
2018-04-02T23:35:52.957Z,13.10
2018-04-02T23:38:20.793Z,13.10
2018-04-02T23:40:48.442Z,13.10
2018-04-02T23:43:16.111Z,13.10
2018-04-02T23:45:43.775Z,13.10
2018-04-02T23:48:11.543Z,13.10
2018-04-02T23:50:39.281Z,13.10
2018-04-02T23:53:06.965Z,13.10
2018-04-02T23:55:34.627Z,13.10
2018-04-02T23:58:02.328Z,13.00
